Leesburg International Airport
KLEE : now visible

Airfield :











YOU CAN JOIN US ON...

 
LOGIN :

Register | Disclaimer

   EN    FR    IT 

 









Legend :    VFR   Marginal VFR   IFR   Intensive IFR   Very Intensive IFR
Visi :
Ceiling :
>= 8 km
>= 3000ft
5 to 8 km
1000 to 3000 ft
1500m to 5 km
500 to 1000 ft
800 to 1500m
200 to 500 ft
< 800m
< 200 ft
Symbols :   Thunderstorms  Fog  Heavy snow  Heavy precipitations  Wind > 20 kt






- Airport Elevation : 76 ft


KLEE - Leesburg International

CURRENT METAR :
  • 081953Z 16005KT 10SM FEW050 34/24 A3012 RMK AO2 LTG DSNT NE AND S SLP198 T03440239

EXPIRED METARs :
  • 081853Z VRB04KT 10SM SCT048 34/24 A3014 RMK AO2 SLP204 T03440239
  • 081753Z VRB05KT 10SM FEW037 33/24 A3016 RMK AO2 SLP212 T03330244 10333 20256 58004

TAF KLEE
Valid from the 08 at 18:00 until the 09 at 18:00 UTC


081721Z 0818/0918 VRB04KT P6SM SCT040 SCT250
FM082000 VRB06KT P6SM VCTS SCT045CB BKN070
TEMPO 0821/0823 VRB12G25KT 3SM TSRA BKN030CB BKN050
FM090200 VRB03KT P6SM FEW050 SCT100 BKN250
FM091500 VRB05KT P6SM FEW040 SCT250
KZJX FIR / North America



MET'MAP, your aeronautical weather chart ! - Copyright ORBIFLY December 2007 - Disclaimer

ORBIFLY MET'MAP TEAM :

Programming & Development : Alexandra Zaïnal
Concept & original design : Baudouin d'Aumeries
Assistance for programming : Marc-Olivier Méhu
Technical & hardware support : Manuel Goepfert

Contact : metmap@orbifly.com




SOURCES & CREDITS :

   NOAA       Earth
Advisory